Time;durP1;ratioP1;P1;durP2;ratioP2;P2;SDS_P1;SDS_P2;PMS_P1;PMS_P2;Temp;Humidity;BMP_temperature;BMP_pressure;BME280_temperature;BME280_humidity;BME280_pressure;Samples;Min_cycle;Max_cycle;Signal;HPM_P1;HPM_P2
2022/10/27 00:12:00;;;;;;;14.55;10.13;;;;;;;;;;6301178;22;20039;-88
2022/10/27 00:14:26;;;;;;;17.35;11.25;;;;;;;;;;6227872;22;20045;-86
2022/10/27 00:16:53;;;;;;;14.80;10.90;;;;;;;;;;6252957;22;20015;-85
2022/10/27 00:27:28;;;;;;;15.75;10.75;;;;;;;;;;6365514;22;20009;-86
2022/10/27 00:30:00;;;;;;;16.27;10.30;;;;;;;;;;6315008;22;19995;-86
2022/10/27 00:32:26;;;;;;;15.00;10.25;;;;;;;;;;6340388;22;19983;-86
2022/10/27 00:34:52;;;;;;;16.05;10.07;;;;;;;;;;6312256;22;20350;-86
2022/10/27 00:37:20;;;;;;;15.38;11.10;;;;;;;;;;6314380;22;19982;-86
2022/10/27 00:39:46;;;;;;;16.17;10.20;;;;;;;;;;6338514;22;19994;-86
2022/10/27 00:42:12;;;;;;;14.73;10.35;;;;;;;;;;6286597;22;20006;-86
2022/10/27 00:44:39;;;;;;;13.23;9.07;;;;;;;;;;6311947;22;20007;-86
2022/10/27 00:47:09;;;;;;;13.98;9.82;;;;;;;;;;6338355;22;20010;-86
2022/10/27 00:49:37;;;;;;;13.75;9.38;;;;;;;;;;6311996;22;19990;-86
2022/10/27 00:52:05;;;;;;;14.48;10.25;;;;;;;;;;6337747;22;20041;-87
2022/10/27 00:54:32;;;;;;;14.35;9.77;;;;;;;;;;6312800;22;20036;-86
2022/10/27 00:56:58;;;;;;;14.80;9.88;;;;;;;;;;6286856;22;20022;-87
2022/10/27 00:59:24;;;;;;;16.38;9.63;;;;;;;;;;6313099;22;20007;-86
2022/10/27 01:01:52;;;;;;;14.25;8.68;;;;;;;;;;6312859;22;20014;-85
2022/10/27 01:04:21;;;;;;;14.35;9.55;;;;;;;;;;6285610;22;20010;-85
2022/10/27 01:06:47;;;;;;;12.82;9.73;;;;;;;;;;6285695;22;20010;-85
2022/10/27 01:09:12;;;;;;;15.88;9.35;;;;;;;;;;6309714;22;20022;-85
2022/10/27 01:11:39;;;;;;;11.65;8.75;;;;;;;;;;6312332;22;19998;-85
2022/10/27 01:14:05;;;;;;;14.20;9.35;;;;;;;;;;6313801;22;19991;-85
2022/10/27 01:16:38;;;;;;;14.48;9.32;;;;;;;;;;6312505;22;19998;-86
2022/10/27 01:19:06;;;;;;;13.40;8.70;;;;;;;;;;6310896;22;20007;-86
2022/10/27 01:21:31;;;;;;;11.40;8.65;;;;;;;;;;6334802;22;20110;-86
2022/10/27 01:24:06;;;;;;;13.50;8.98;;;;;;;;;;6308563;22;20011;-86
2022/10/27 01:26:57;;;;;;;12.75;8.40;;;;;;;;;;6313631;22;20022;-87
2022/10/27 01:29:49;;;;;;;13.77;8.68;;;;;;;;;;6313197;22;20006;-87
2022/10/27 01:32:24;;;;;;;13.10;8.50;;;;;;;;;;6337497;22;20042;-86
2022/10/27 01:35:12;;;;;;;14.98;9.27;;;;;;;;;;6364181;22;19999;-87
2022/10/27 01:37:48;;;;;;;13.85;9.45;;;;;;;;;;6311296;22;19993;-86
2022/10/27 01:40:32;;;;;;;16.30;9.07;;;;;;;;;;6284822;22;20007;-86
2022/10/27 01:43:00;;;;;;;15.45;9.25;;;;;;;;;;6284080;22;20015;-84
2022/10/27 01:45:28;;;;;;;12.95;8.90;;;;;;;;;;6309953;22;20005;-86
2022/10/27 01:47:56;;;;;;;14.50;8.85;;;;;;;;;;6307977;22;20101;-83
2022/10/27 01:50:26;;;;;;;13.50;8.88;;;;;;;;;;6308439;22;20422;-86
2022/10/27 01:52:51;;;;;;;16.10;9.05;;;;;;;;;;6282427;22;20035;-85
2022/10/27 01:55:17;;;;;;;;;;;;;;;;;;6334491;22;20032;-86
2022/10/27 01:57:44;;;;;;;15.15;9.07;;;;;;;;;;6333194;22;19915;-86
2022/10/27 02:00:09;;;;;;;14.77;9.23;;;;;;;;;;6307606;22;19995;-85
2022/10/27 02:02:35;;;;;;;14.45;8.95;;;;;;;;;;6283092;22;20036;-86
2022/10/27 02:05:11;;;;;;;12.60;8.52;;;;;;;;;;6333708;22;20003;-86
2022/10/27 02:07:40;;;;;;;13.23;8.02;;;;;;;;;;6309305;22;20002;-85
2022/10/27 02:10:06;;;;;;;13.43;8.35;;;;;;;;;;6312771;22;19980;-85
2022/10/27 02:12:36;;;;;;;12.80;8.13;;;;;;;;;;6313583;22;20063;-85
2022/10/27 02:15:03;;;;;;;16.30;8.52;;;;;;;;;;6311919;22;20006;-84
2022/10/27 02:17:37;;;;;;;14.30;8.80;;;;;;;;;;6311235;22;20003;-85
2022/10/27 02:20:05;;;;;;;14.65;8.68;;;;;;;;;;6310906;22;20016;-85
2022/10/27 02:27:49;;;;;;;18.15;8.93;;;;;;;;;;6329977;22;20031;-85
2022/10/27 02:30:16;;;;;;;16.08;8.70;;;;;;;;;;6280207;22;20019;-86
2022/10/27 02:32:42;;;;;;;16.77;9.45;;;;;;;;;;6278449;22;20007;-85
2022/10/27 02:35:08;;;;;;;;;;;;;;;;;;6252468;22;20018;-85
2022/10/27 02:37:35;;;;;;;16.60;8.32;;;;;;;;;;6303505;22;19922;-84
2022/10/27 02:40:01;;;;;;;15.30;7.97;;;;;;;;;;6278552;22;20071;-86
2022/10/27 02:42:27;;;;;;;14.80;8.35;;;;;;;;;;6303912;22;20018;-84
2022/10/27 02:44:55;;;;;;;12.20;8.32;;;;;;;;;;6306012;22;20026;-85
2022/10/27 02:47:20;;;;;;;14.52;8.43;;;;;;;;;;6252417;22;19991;-85
2022/10/27 02:49:46;;;;;;;15.18;8.23;;;;;;;;;;6252126;22;20010;-84
2022/10/27 02:52:12;;;;;;;13.82;8.13;;;;;;;;;;6251655;22;20010;-85
2022/10/27 02:54:38;;;;;;;;;;;;;;;;;;6279789;22;20489;-84
2022/10/27 02:57:03;;;;;;;12.32;7.43;;;;;;;;;;6279759;22;19942;-85
2022/10/27 02:59:30;;;;;;;12.25;7.93;;;;;;;;;;6308415;22;20015;-85
2022/10/27 03:01:57;;;;;;;11.25;7.05;;;;;;;;;;6283919;22;20011;-86
2022/10/27 03:04:24;;;;;;;11.90;7.65;;;;;;;;;;6282701;22;20007;-85
2022/10/27 03:06:50;;;;;;;11.85;7.50;;;;;;;;;;6282042;22;20081;-85
2022/10/27 03:09:16;;;;;;;15.70;8.52;;;;;;;;;;6256653;22;20007;-85
2022/10/27 03:11:42;;;;;;;12.98;8.68;;;;;;;;;;6280844;22;19999;-86
2022/10/27 03:14:08;;;;;;;15.15;8.00;;;;;;;;;;6280104;22;20055;-85
2022/10/27 03:16:34;;;;;;;15.23;7.63;;;;;;;;;;6256273;22;19999;-87
2022/10/27 03:19:00;;;;;;;9.98;7.50;;;;;;;;;;6281333;22;20098;-87
2022/10/27 03:21:25;;;;;;;11.50;7.97;;;;;;;;;;6256481;22;19991;-86
2022/10/27 03:23:52;;;;;;;14.38;7.68;;;;;;;;;;6280110;22;20015;-86
2022/10/27 03:26:17;;;;;;;13.45;6.75;;;;;;;;;;6257025;22;20056;-85
2022/10/27 03:28:45;;;;;;;12.25;6.45;;;;;;;;;;6279942;22;20015;-86
2022/10/27 03:31:11;;;;;;;11.65;6.85;;;;;;;;;;6280381;22;20026;-86
2022/10/27 03:33:37;;;;;;;10.52;6.88;;;;;;;;;;6255992;22;20011;-84
2022/10/27 03:36:02;;;;;;;15.07;7.45;;;;;;;;;;6254993;22;20048;-86
2022/10/27 03:38:29;;;;;;;10.93;6.60;;;;;;;;;;6309534;22;19999;-86
2022/10/27 03:41:24;;;;;;;14.90;6.28;;;;;;;;;;6285068;22;20042;-85
2022/10/27 03:43:51;;;;;;;13.00;7.10;;;;;;;;;;6309842;22;20033;-87
2022/10/27 03:46:18;;;;;;;13.15;6.72;;;;;;;;;;6309375;22;19991;-85
2022/10/27 03:48:45;;;;;;;9.20;7.00;;;;;;;;;;6307313;22;20012;-85
2022/10/27 03:51:11;;;;;;;12.05;7.13;;;;;;;;;;6308434;22;19986;-85
2022/10/27 03:53:38;;;;;;;13.55;6.93;;;;;;;;;;6281294;22;20015;-85
2022/10/27 03:56:05;;;;;;;9.50;6.70;;;;;;;;;;6281322;22;19999;-86
2022/10/27 03:58:30;;;;;;;12.50;6.88;;;;;;;;;;6258297;22;19994;-87
2022/10/27 04:01:20;;;;;;;8.48;6.57;;;;;;;;;;6283946;22;20005;-86
2022/10/27 04:03:50;;;;;;;12.48;6.60;;;;;;;;;;6333572;22;19995;-87
2022/10/27 04:06:16;;;;;;;10.57;6.93;;;;;;;;;;6307959;22;19987;-85
2022/10/27 04:08:43;;;;;;;10.27;6.45;;;;;;;;;;6282396;22;20040;-85
2022/10/27 04:11:11;;;;;;;13.77;6.57;;;;;;;;;;6281825;22;20007;-85
2022/10/27 04:13:39;;;;;;;10.70;6.53;;;;;;;;;;6283361;22;20041;-86
2022/10/27 04:16:05;;;;;;;11.18;7.03;;;;;;;;;;6258536;22;20009;-86
2022/10/27 04:18:31;;;;;;;14.20;6.78;;;;;;;;;;6284354;22;20019;-85
2022/10/27 04:21:00;;;;;;;12.88;6.63;;;;;;;;;;6257991;22;19983;-85
2022/10/27 04:23:26;;;;;;;10.57;6.63;;;;;;;;;;6282228;22;20011;-87
2022/10/27 04:25:55;;;;;;;8.25;6.18;;;;;;;;;;6308964;22;20014;-85
2022/10/27 04:31:39;;;;;;;12.17;6.70;;;;;;;;;;6303928;22;20016;-85
2022/10/27 04:34:08;;;;;;;9.80;5.90;;;;;;;;;;6276181;22;20262;-86
2022/10/27 04:41:52;;;;;;;10.60;5.78;;;;;;;;;;6283461;22;20066;-86
2022/10/27 04:47:49;;;;;;;11.25;6.20;;;;;;;;;;6361605;22;20018;-84
2022/10/27 04:51:10;;;;;;;12.00;6.47;;;;;;;;;;6365836;22;20040;-83
2022/10/27 05:05:06;;;;;;;12.45;6.72;;;;;;;;;;6340044;22;20038;-83
2022/10/27 05:07:31;;;;;;;;;;;;;;;;;;6304123;22;20043;-83
2022/10/27 05:09:57;;;;;;;13.90;7.15;;;;;;;;;;6329851;22;19904;-83
2022/10/27 05:12:23;;;;;;;10.55;6.28;;;;;;;;;;6327125;22;20003;-82
2022/10/27 05:14:48;;;;;;;10.70;6.05;;;;;;;;;;6279134;22;20006;-81
2022/10/27 05:17:15;;;;;;;14.52;6.90;;;;;;;;;;6307544;22;20037;-85
2022/10/27 06:13:17;;;;;;;10.38;5.70;;;;;;;;;;6337099;22;20034;-84
2022/10/27 06:35:53;;;;;;;15.77;7.38;;;;;;;;;;6357243;22;20049;-84
2022/10/27 06:38:20;;;;;;;10.73;7.90;;;;;;;;;;6340920;22;20007;-85
2022/10/27 06:40:47;;;;;;;12.40;6.20;;;;;;;;;;6289283;22;20025;-85
2022/10/27 06:43:24;;;;;;;13.52;7.63;;;;;;;;;;6344251;22;19987;-86
2022/10/27 07:04:40;;;;;;;14.50;7.88;;;;;;;;;;6355371;22;20034;-86
2022/10/27 08:21:37;;;;;;;13.55;8.18;;;;;;;;;;6364940;22;20037;-87
2022/10/27 08:24:34;;;;;;;14.50;8.13;;;;;;;;;;6338147;22;20006;-86
2022/10/27 08:47:09;;;;;;;16.23;8.10;;;;;;;;;;6304286;22;20031;-85
2022/10/27 19:00:12;;;;;;;19.13;11.18;;;;;;;;;;5675269;22;15243484;-88
2022/10/27 19:02:41;;;;;;;19.98;11.10;;;;;;;;;;6304418;22;20024;-86
